Latest Coastal Weather Observations for Cape Nelson

IDV60701

Issued at 1:32 am EST Sunday 28 May 2017 (issued every 10 minutes, with the page automatically refreshed every 10 minutes)

About coastal observations | Map of coastal stations | Coastal observations for VIC | Marine services | Other Formats
Station Details ID: 090184 Name: CAPE NELSON LIGHTHOUSE Lat: -38.43 Lon: 141.54 Height: 45.4 m
Data from the previous 72 hours. | See also: Recent months at Cape Nelson
Date/Time
EST
Temp
°C
Wind Pressure Rain since
9am
mm
Weather Cloud Vis
km
Sea
Height
m
Swell
Dir  Spd
kts
Gust
kts
hPa Trend Height
m
Period
s
Dir
28/01:30am 12.8 W 15 23 1006.0 - 8.6 - - - - - - -
28/01:00am 12.7 W 15 24 1006.3 - 8.6 - - - - - - -
28/12:30am 12.6 W 17 24 1006.7 - 8.6 - - - - - - -
28/12:00am 12.0 W 14 22 1006.9 - 8.6 Recent precip. - - - - - -
 
Date/Time
EST
Temp
°C
Wind Pressure Rain since
9am
mm
Weather Cloud Vis
km
Sea
Height
m
Swell
Dir  Spd
kts
Gust
kts
hPa Trend Height
m
Period
s
Dir
27/11:30pm 11.3 W 15 24 1006.9 - 8.6 - - - - - - -
27/11:12pm 12.9 W 18 30 1006.6 - 8.4 - - - - - - -
27/11:00pm 12.7 W 19 24 1006.9 - 8.4 - - - - - - -
27/10:44pm 12.3 W 15 25 1006.6 - 8.4 - - - - - - -
27/10:30pm 12.2 W 21 29 1006.7 - 8.4 - - - - - - -
27/10:26pm 12.3 W 15 29 1006.7 - 8.4 - - - - - - -
27/10:00pm 11.6 WNW 13 22 1007.2 - 8.2 - - - - - - -
27/09:30pm 12.8 W 13 19 1007.2 - 7.0 - - - - - - -
27/09:00pm 12.5 W 11 16 1007.2 - 7.0 Recent precip. - - - - - -
27/08:30pm 12.3 W 14 20 1006.9 - 7.0 - - - - - - -
27/08:11pm 12.3 W 17 27 1006.8 - 6.8 - - - - - - -
27/08:00pm 12.6 W 21 28 1006.7 - 6.8 - - - - - - -
27/07:51pm 12.4 W 18 28 1006.5 - 6.8 - - - - - - -
27/07:30pm 11.6 NNW 13 19 1006.3 - 6.2 - - - - - - -
27/07:00pm 11.8 NNW 11 15 1006.2 - 6.2 - - - - - - -
27/06:30pm 12.1 NW 15 21 1006.4 - 6.2 - - - - - - -
27/06:00pm 11.3 NNW 16 26 1006.5 - 5.4 Rain - - - - - -
27/05:56pm 11.2 NNW 15 26 1006.3 - 5.4 - - - - - - -
27/05:30pm 11.4 NNW 16 22 1006.0 - 5.2 - - - - - - -
27/05:02pm 11.8 NW 20 33 1006.6 - 3.2 - - - - - - -
27/05:00pm 12.6 NW 18 33 1006.6 - 2.4 - - - - - - -
27/04:56pm 15.0 NW 13 28 1006.7 - 0.6 - - - - - - -
27/04:30pm 15.4 NNW 11 18 1006.0 - 0.2 - - - - - - -
27/04:00pm 16.3 NNW 13 19 1006.3 - 0.2 - - - - - - -
27/03:30pm 16.4 NNW 16 27 1006.3 - 0.2 - - - - - - -
27/03:29pm 16.4 NNW 15 25 1006.3 - 0.2 - - - - - - -
27/03:00pm 17.1 NNW 16 24 1006.4 - 0.2 - - - - - - -
27/02:34pm 17.6 NNW 16 26 1006.3 - 0.2 - - - - - - -
27/02:30pm 17.6 NNW 15 24 1006.4 - 0.2 - - - - - - -
27/02:00pm 16.6 NNW 15 25 1007.1 - 0.2 - - - - - - -
27/01:30pm 15.5 NNW 17 27 1007.9 - 0.2 - - - - - - -
27/01:09pm 17.2 NNW 15 26 1007.9 - 0.0 - - - - - - -
27/01:00pm 16.9 NNW 16 23 1008.2 - 0.0 - - - - - - -
27/12:30pm 17.4 NNW 16 27 1008.8 - 0.0 - - - - - - -
27/12:00pm 16.2 NNW 16 27 1009.2 - 0.0 - - - - - - -
27/11:32am 16.7 N 16 26 1010.0 - 0.0 - - - - - - -
27/11:30am 16.8 N 17 22 1010.0 - 0.0 - - - - - - -
27/11:00am 17.0 N 16 23 1010.3 - 0.0 - - - - - - -
27/10:30am 16.8 N 15 21 1010.8 - 0.0 - - - - - - -
27/10:00am 15.9 NNW 13 21 1011.2 - 0.0 - - - - - - -
27/09:30am 14.6 N 15 21 1011.5 - 0.0 - - - - - - -
27/09:00am 14.4 N 15 25 1011.6 - 0.0 - - - - - - -
27/08:31am 14.4 NNW 15 25 1011.6 - 0.0 - - - - - - -
27/08:30am 14.3 N 16 25 1011.6 - 0.0 - - - - - - -
27/08:12am 14.1 NNW 15 25 1011.6 - 0.0 - - - - - - -
27/08:00am 13.8 NNW 15 22 1011.7 - 0.0 - - - - - - -
27/07:30am 13.9 N 15 21 1011.7 - 0.0 - - - - - - -
27/07:00am 13.7 N 14 23 1012.0 - 0.0 - - - - - - -
27/06:30am 14.1 N 15 22 1012.1 - 0.0 - - - - - - -
27/06:00am 13.4 NNW 14 21 1012.2 - 0.0 - - - - - - -
27/05:30am 13.1 NNW 14 21 1012.3 - 0.0 - - - - - - -
27/05:00am 12.8 N 15 20 1012.4 - 0.0 - - - - - - -
27/04:30am 12.8 N 15 21 1012.6 - 0.0 - - - - - - -
27/04:00am 12.7 N 14 21 1012.9 - 0.0 - - - - - - -
27/03:30am 12.5 N 15 21 1013.1 - 0.0 - - - - - - -
27/03:00am 12.3 N 15 21 1013.5 - 0.0 - - - - - - -
27/02:30am 12.0 N 15 25 1013.7 - 0.0 - - - - - - -
27/02:22am 12.0 N 15 25 1013.8 - 0.0 - - - - - - -
27/02:00am 11.7 N 16 23 1014.0 - 0.0 - - - - - - -
27/01:30am 11.5 N 14 18 1014.3 - 0.0 - - - - - - -
27/01:00am 11.2 N 13 19 1014.8 - 0.0 - - - - - - -
27/12:30am 11.3 N 13 19 1015.3 - 0.0 - - - - - - -
27/12:00am 11.2 N 12 17 1015.3 - 0.0 - - - - - - -
 
Date/Time
EST
Temp
°C
Wind Pressure Rain since
9am
mm
Weather Cloud Vis
km
Sea
Height
m
Swell
Dir  Spd
kts
Gust
kts
hPa Trend Height
m
Period
s
Dir
26/11:30pm 10.9 N 11 16 1015.6 - 0.0 - - - - - - -
26/11:00pm 11.0 N 12 18 1016.0 - 0.0 - - - - - - -
26/10:30pm 11.0 N 12 16 1016.4 - 0.0 - - - - - - -
26/10:00pm 10.9 N 13 20 1016.6 - 0.0 - - - - - - -
26/09:30pm 10.4 N 12 17 1016.9 - 0.0 - - - - - - -
26/09:00pm 10.1 N 10 15 1017.1 - 0.0 - - - - - - -
26/08:30pm 10.5 N 9 14 1017.3 - 0.0 - - - - - - -
26/08:00pm 11.5 N 10 13 1017.5 - 0.0 - - - - - - -
26/07:30pm 11.2 NNE 10 14 1017.6 - 0.0 - - - - - - -
26/07:00pm 10.0 N 8 12 1017.8 - 0.0 - - - - - - -
26/06:30pm 10.2 N 9 11 1018.0 - 0.0 - - - - - - -
26/06:00pm 10.4 N 7 9 1018.3 - 0.0 - - - - - - -
26/05:30pm 11.0 N 7 9 1018.3 - 0.0 - - - - - - -
26/05:00pm 12.2 N 8 10 1018.4 - 0.0 - - - - - - -
26/04:30pm 13.3 N 7 11 1018.6 - 0.0 - - - - - - -
26/04:00pm 13.9 NNW 8 11 1018.7 - 0.0 - - - - - - -
26/03:30pm 14.8 NNW 7 10 1018.7 - 0.0 - - - - - - -
26/03:00pm 15.8 N 6 9 1018.8 - 0.0 - - - - - - -
26/02:30pm 15.1 NNW 8 12 1018.9 - 0.0 - - - - - - -
26/02:00pm 15.9 NNW 7 11 1019.3 - 0.0 - - - - - - -
26/01:30pm 14.7 NNW 5 9 1019.7 - 0.0 - - - - - - -
26/01:00pm 15.7 NW 8 12 1020.2 - 0.0 - - - - - - -
26/12:30pm 15.4 NNW 6 10 1020.7 - 0.0 - - - - - - -
26/12:00pm 14.8 NW 8 12 1021.3 - 0.0 - - - - - - -
26/11:30am 14.6 NW 7 10 1021.7 - 0.0 - - - - - - -
26/11:00am 14.9 NNW 7 10 1021.9 - 0.0 - - - - - - -
26/10:30am 13.9 NW 5 7 1022.1 - 0.0 - - - - - - -
26/10:00am 13.6 NNW 6 8 1022.1 - 0.0 - - - - - - -
26/09:30am 13.5 NW 6 8 1022.2 - 0.0 - - - - - - -
26/09:00am 13.2 WNW 7 10 1022.2 - 1.2 - - - - - - -
26/08:30am 13.0 N 4 7 1022.0 - 1.2 - - - - - - -
26/08:00am 12.7 WNW 8 12 1021.9 - 1.2 - - - - - - -
26/07:30am 13.1 W 6 10 1021.7 - 1.2 - - - - - - -
26/07:00am 13.0 NW 6 12 1021.5 - 1.2 - - - - - - -
26/06:30am 12.9 NNE 5 8 1021.3 - 1.2 - - - - - - -
26/06:00am 12.9 NE 5 8 1021.1 - 1.2 - - - - - - -
26/05:30am 12.9 NNW 5 10 1020.9 - 1.2 - - - - - - -
26/05:00am 13.0 ESE 5 9 1020.6 - 1.2 - - - - - - -
26/04:30am 12.9 NNW 5 9 1020.5 - 1.2 - - - - - - -
26/04:00am 12.5 WNW 3 7 1020.6 - 1.2 - - - - - - -
26/03:30am 13.0 WNW 6 10 1020.6 - 1.2 - - - - - - -
26/03:00am 12.8 NNE 5 8 1020.4 - 1.2 - - - - - - -
26/02:30am 13.0 NW 7 13 1020.4 - 1.2 - - - - - - -
26/02:00am 12.8 NNE 6 10 1020.4 - 1.2 - - - - - - -
26/01:30am 12.8 NNE 7 11 1020.4 - 1.2 - - - - - - -
26/01:00am 12.9 NE 7 12 1020.5 - 1.2 - - - - - - -
26/12:30am 13.2 NNE 7 11 1020.4 - 1.2 - - - - - - -
26/12:00am 12.9 NE 7 13 1020.4 - 1.2 - - - - - - -
 
Date/Time
EST
Temp
°C
Wind Pressure Rain since
9am
mm
Weather Cloud Vis
km
Sea
Height
m
Swell
Dir  Spd
kts
Gust
kts
hPa Trend Height
m
Period
s
Dir
25/11:30pm 13.1 NE 7 11 1020.3 - 1.2 - - - - - - -
25/11:00pm 13.3 ENE 8 15 1020.1 - 1.2 - - - - - - -
25/10:30pm 13.7 NE 6 12 1020.0 - 1.2 - - - - - - -
25/10:00pm 13.7 NNE 8 11 1019.7 - 1.2 - - - - - - -
25/09:30pm 13.8 NE 8 14 1019.5 - 1.2 - - - - - - -
25/09:00pm 13.8 SSE 9 17 1019.4 - 1.2 - - - - - - -
25/08:30pm 14.1 SSE 10 19 1018.8 - 1.2 - - - - - - -
25/08:00pm 13.4 E 8 13 1018.5 - 1.2 - - - - - - -
25/07:30pm 13.6 ESE 9 18 1018.5 - 1.2 - - - - - - -
25/07:00pm 13.4 SSE 12 22 1017.6 - 1.0 - - - - - - -
25/06:30pm 15.1 WNW 13 22 1017.1 - 1.0 - - - - - - -
25/06:00pm 15.7 WNW 14 19 1016.9 - 1.0 - - - - - - -
25/05:30pm 15.6 WNW 15 23 1016.8 - 1.0 - - - - - - -
25/05:00pm 15.7 WNW 15 21 1016.6 - 1.0 - - - - - - -
25/04:30pm 16.0 WNW 18 25 1016.5 - 1.0 - - - - - - -
25/04:00pm 16.1 WNW 16 21 1016.4 - 1.0 - - - - - - -
25/03:30pm 16.1 WNW 16 22 1016.2 - 1.0 - - - - - - -
25/03:00pm 16.1 WNW 16 24 1016.2 - 0.8 - - - - - - -
25/02:30pm 16.1 NW 15 20 1016.3 - 0.8 - - - - - - -
25/02:00pm 15.9 WNW 15 22 1016.4 - 0.8 - - - - - - -
25/01:30pm 16.2 NW 15 23 1016.5 - 0.8 - - - - - - -
25/01:14pm 16.0 WNW 17 27 1016.5 - 0.8 - - - - - - -
25/01:00pm 15.7 NW 18 27 1016.5 - 0.8 - - - - - - -
25/12:51pm 15.8 NW 20 30 1016.4 - 0.8 - - - - - - -
25/12:30pm 15.3 NW 20 27 1016.6 - 0.6 - - - - - - -
25/12:00pm 15.7 NW 15 21 1017.0 - 0.6 - - - - - - -
25/11:30am 15.5 NNW 15 25 1017.3 - 0.6 - - - - - - -
25/11:28am 15.2 NNW 15 25 1017.2 - 0.6 - - - - - - -
25/11:00am 15.0 NNW 16 25 1017.5 - 0.6 - - - - - - -
25/10:57am 14.8 NNW 15 25 1017.5 - 0.6 - - - - - - -
25/10:30am 14.3 NNW 14 23 1017.6 - 0.6 - - - - - - -
25/10:00am 13.4 NNW 15 22 1017.6 - 0.6 - - - - - - -
25/09:30am 13.4 NNW 14 22 1017.8 - 0.6 - - - - - - -
25/09:00am 13.3 NNW 10 15 1018.1 - 0.2 - - - - - - -
25/08:30am 13.3 NNW 13 20 1017.7 - 0.2 - - - - - - -
25/08:00am 12.9 NNW 12 19 1017.6 - 0.2 - - - - - - -
25/07:30am 12.9 NNW 12 19 1017.7 - 0.2 - - - - - - -
25/07:00am 13.0 NNW 12 17 1017.7 - 0.2 - - - - - - -
25/06:30am 12.8 NNW 11 16 1017.4 - 0.2 - - - - - - -
25/06:00am 12.9 NNW 11 17 1017.3 - 0.2 - - - - - - -
25/05:30am 13.1 NNW 11 18 1017.5 - 0.2 - - - - - - -
25/05:00am 13.2 NNW 10 14 1017.5 - 0.2 - - - - - - -
25/04:30am 13.4 NNW 13 18 1017.5 - 0.2 - - - - - - -
25/04:00am 13.1 NW 9 16 1017.6 - 0.2 - - - - - - -
25/03:30am 12.9 NNW 8 12 1017.6 - 0.2 - - - - - - -
25/03:00am 12.9 NNW 9 13 1017.8 - 0.2 - - - - - - -
25/02:30am 12.9 NNW 10 12 1018.0 - 0.2 - - - - - - -
25/02:00am 12.9 NNW 9 12 1018.1 - 0.2 - - - - - - -

Other Formats:

Comma delimited format used in spreadsheet applications
http://www.bom.gov.au/fwo/IDV60701/IDV60701.94826.axf

JavaScript Object Notation format (JSON) in row-major order
http://www.bom.gov.au/fwo/IDV60701/IDV60701.94826.json